West Yellowstone, MT

8:58 PM MST on February 10, 2016 (GMT -0700)
Lower Beartrap | | Change Station
CLOSE
Current Station
Personal Weather Station
Location: West Yellowstone, MT
Elevation: 6565 ft
Nearby Weather Stations

Elev 6565 ft 44.79 °N, 111.14 °W | Updated 13 minutes ago

Clear
Clear
23.9 °F
Feels Like 16 °F
N
6.9
Wind Variable Wind from North
Gusts 6.9 mph

Today
High -- | Low -- °F
--% Chance of Precip.
Yesterday
High -- | Low -- °F
Precip. -- in
Pressure 30.53 in
Visibility -9999.0 miles
Clouds
Windchill 16 °F
Dew Point 20 °F
Humidity 84%
Rainfall 0.00 in
Snow Depth Not available.
7:32 AM 5:45 PM
Waxing Crescent, 9% visible
METAR KP60 110356Z AUTO 00000KT M04/M08 A3036 RMK AO1 SLP339 T10441078 $
Pressure 30.53 in
Visibility -9999.0 miles
Clouds
Windchill 16 °F
Dew Point 20 °F
Humidity 84%
Rainfall 0.00 in
Snow Depth Not available.
7:32 AM 5:45 PM
Waxing Crescent, 9% visible
METAR KP60 110356Z AUTO 00000KT M04/M08 A3036 RMK AO1 SLP339 T10441078 $

10-Day Weather Forecast

Almanac

Astronomy

Feb. 10, 2016 Rise Set
Actual Time
Civil Twilight
Nautical Twilight
Astronomical Twilight
Moon
Length of Visible Light
Length of Day
Tomorrow will be .
, % of the Moon is Illuminated

Today's Extremes

State Highs State Lows

Community

WunderPhotos

Upload Photos

1,892,000 photos uploaded!

WunderBlog® & News

Nearby

Air Quality

  Air Quality AQ Index Pollutant
Not available.

Snow Depth

Station Depth Elevation

Earthquake Activity

City Distance Mag. Time & Date
Minimum magnitude displayed is 2.5.

Coastal Water Temperatures

Place Temperature

Stations

Nearby Weather Stations

Station Location Temp. Windchill Dew Point Humidity Wind Precip. Elev Updated Type
                   

Watches & Warnings

There are currently no watches in effect.